sensor_id;sensor_type;location;lat;lon;timestamp;P1;durP1;ratioP1;P2;durP2;ratioP2
51957;SDS011;41120;51.820;20.804;2023-05-07T00:00:55;6.18;;;4.60;;
51957;SDS011;41120;51.820;20.804;2023-05-07T00:03:21;7.20;;;4.78;;
51957;SDS011;41120;51.820;20.804;2023-05-07T00:08:48;6.40;;;4.70;;
51957;SDS011;41120;51.820;20.804;2023-05-07T00:14:18;6.10;;;4.30;;
51957;SDS011;41120;51.820;20.804;2023-05-07T00:19:44;9.82;;;5.15;;
51957;SDS011;41120;51.820;20.804;2023-05-07T00:22:18;7.60;;;4.82;;
51957;SDS011;41120;51.820;20.804;2023-05-07T00:25:00;5.97;;;4.50;;
51957;SDS011;41120;51.820;20.804;2023-05-07T00:27:31;7.30;;;4.53;;
51957;SDS011;41120;51.820;20.804;2023-05-07T00:40:49;6.30;;;3.95;;
51957;SDS011;41120;51.820;20.804;2023-05-07T00:46:13;7.70;;;4.60;;
51957;SDS011;41120;51.820;20.804;2023-05-07T00:56:40;8.63;;;5.03;;
51957;SDS011;41120;51.820;20.804;2023-05-07T00:59:11;6.95;;;4.47;;
51957;SDS011;41120;51.820;20.804;2023-05-07T01:01:49;6.93;;;4.22;;
51957;SDS011;41120;51.820;20.804;2023-05-07T01:06:45;8.85;;;5.53;;
51957;SDS011;41120;51.820;20.804;2023-05-07T01:09:20;7.22;;;4.57;;
51957;SDS011;41120;51.820;20.804;2023-05-07T01:11:59;8.10;;;4.18;;
51957;SDS011;41120;51.820;20.804;2023-05-07T01:14:40;8.43;;;4.53;;
51957;SDS011;41120;51.820;20.804;2023-05-07T01:17:06;6.70;;;4.28;;
51957;SDS011;41120;51.820;20.804;2023-05-07T01:23:03;5.68;;;4.45;;
51957;SDS011;41120;51.820;20.804;2023-05-07T01:28:33;7.72;;;4.80;;
51957;SDS011;41120;51.820;20.804;2023-05-07T01:33:37;9.15;;;4.65;;
51957;SDS011;41120;51.820;20.804;2023-05-07T01:36:05;8.50;;;4.60;;
51957;SDS011;41120;51.820;20.804;2023-05-07T01:41:08;8.93;;;4.68;;
51957;SDS011;41120;51.820;20.804;2023-05-07T01:49:30;8.00;;;4.80;;
51957;SDS011;41120;51.820;20.804;2023-05-07T01:52:05;8.38;;;4.90;;
51957;SDS011;41120;51.820;20.804;2023-05-07T01:54:43;11.30;;;5.13;;
51957;SDS011;41120;51.820;20.804;2023-05-07T01:57:15;9.43;;;5.13;;
51957;SDS011;41120;51.820;20.804;2023-05-07T01:59:42;7.88;;;5.20;;
51957;SDS011;41120;51.820;20.804;2023-05-07T02:07:51;8.63;;;5.45;;
51957;SDS011;41120;51.820;20.804;2023-05-07T02:10:22;8.45;;;5.55;;
51957;SDS011;41120;51.820;20.804;2023-05-07T02:12:55;7.80;;;4.88;;
51957;SDS011;41120;51.820;20.804;2023-05-07T02:15:20;6.80;;;4.90;;
51957;SDS011;41120;51.820;20.804;2023-05-07T02:18:05;8.00;;;5.55;;
51957;SDS011;41120;51.820;20.804;2023-05-07T02:20:32;7.43;;;5.57;;
51957;SDS011;41120;51.820;20.804;2023-05-07T02:23:01;7.45;;;5.15;;
51957;SDS011;41120;51.820;20.804;2023-05-07T02:28:13;11.70;;;4.90;;
51957;SDS011;41120;51.820;20.804;2023-05-07T02:30:52;6.80;;;5.18;;
51957;SDS011;41120;51.820;20.804;2023-05-07T02:33:21;7.55;;;5.18;;
51957;SDS011;41120;51.820;20.804;2023-05-07T02:51:43;5.88;;;4.07;;
51957;SDS011;41120;51.820;20.804;2023-05-07T02:54:11;7.32;;;4.60;;
51957;SDS011;41120;51.820;20.804;2023-05-07T02:56:43;6.97;;;4.65;;
51957;SDS011;41120;51.820;20.804;2023-05-07T02:59:11;5.93;;;4.50;;
51957;SDS011;41120;51.820;20.804;2023-05-07T03:01:39;7.55;;;4.72;;
51957;SDS011;41120;51.820;20.804;2023-05-07T03:04:13;7.82;;;5.07;;
51957;SDS011;41120;51.820;20.804;2023-05-07T03:12:39;6.13;;;4.50;;
51957;SDS011;41120;51.820;20.804;2023-05-07T03:15:17;6.25;;;3.95;;
51957;SDS011;41120;51.820;20.804;2023-05-07T03:17:44;6.70;;;3.80;;
51957;SDS011;41120;51.820;20.804;2023-05-07T03:20:17;5.50;;;4.15;;
51957;SDS011;41120;51.820;20.804;2023-05-07T03:22:52;6.15;;;4.13;;
51957;SDS011;41120;51.820;20.804;2023-05-07T03:27:47;4.35;;;3.20;;
51957;SDS011;41120;51.820;20.804;2023-05-07T03:32:44;3.25;;;2.92;;
51957;SDS011;41120;51.820;20.804;2023-05-07T03:35:12;4.55;;;3.47;;
51957;SDS011;41120;51.820;20.804;2023-05-07T03:40:46;4.95;;;2.65;;
51957;SDS011;41120;51.820;20.804;2023-05-07T03:43:12;4.03;;;3.13;;
51957;SDS011;41120;51.820;20.804;2023-05-07T03:45:47;4.72;;;3.20;;
51957;SDS011;41120;51.820;20.804;2023-05-07T03:48:13;3.28;;;2.40;;
51957;SDS011;41120;51.820;20.804;2023-05-07T03:53:22;5.70;;;3.50;;
51957;SDS011;41120;51.820;20.804;2023-05-07T03:58:22;6.50;;;3.40;;
51957;SDS011;41120;51.820;20.804;2023-05-07T04:06:23;4.85;;;3.47;;
51957;SDS011;41120;51.820;20.804;2023-05-07T04:08:58;6.60;;;4.13;;
51957;SDS011;41120;51.820;20.804;2023-05-07T04:11:30;5.93;;;3.60;;
51957;SDS011;41120;51.820;20.804;2023-05-07T04:14:13;7.05;;;3.90;;
51957;SDS011;41120;51.820;20.804;2023-05-07T04:21:52;6.05;;;3.80;;
51957;SDS011;41120;51.820;20.804;2023-05-07T04:24:23;4.30;;;3.40;;
51957;SDS011;41120;51.820;20.804;2023-05-07T04:32:13;4.72;;;3.90;;
51957;SDS011;41120;51.820;20.804;2023-05-07T04:39:49;4.30;;;3.25;;
51957;SDS011;41120;51.820;20.804;2023-05-07T04:42:22;3.72;;;3.20;;
51957;SDS011;41120;51.820;20.804;2023-05-07T04:48:12;5.28;;;3.17;;
51957;SDS011;41120;51.820;20.804;2023-05-07T04:50:42;6.18;;;3.58;;
51957;SDS011;41120;51.820;20.804;2023-05-07T04:53:23;4.18;;;3.30;;
51957;SDS011;41120;51.820;20.804;2023-05-07T04:55:59;5.15;;;4.35;;
51957;SDS011;41120;51.820;20.804;2023-05-07T04:58:25;6.20;;;3.42;;
51957;SDS011;41120;51.820;20.804;2023-05-07T05:00:56;7.13;;;4.18;;
51957;SDS011;41120;51.820;20.804;2023-05-07T05:03:21;5.82;;;3.90;;
51957;SDS011;41120;51.820;20.804;2023-05-07T05:05:48;4.93;;;3.80;;
51957;SDS011;41120;51.820;20.804;2023-05-07T05:08:21;4.97;;;3.50;;
51957;SDS011;41120;51.820;20.804;2023-05-07T05:13:41;4.38;;;3.25;;
51957;SDS011;41120;51.820;20.804;2023-05-07T05:16:17;3.10;;;2.80;;
51957;SDS011;41120;51.820;20.804;2023-05-07T05:18:50;4.20;;;3.00;;
51957;SDS011;41120;51.820;20.804;2023-05-07T05:26:21;4.78;;;3.25;;
51957;SDS011;41120;51.820;20.804;2023-05-07T05:28:56;2.42;;;2.17;;
51957;SDS011;41120;51.820;20.804;2023-05-07T05:31:29;2.80;;;2.55;;
51957;SDS011;41120;51.820;20.804;2023-05-07T05:33:56;6.60;;;3.08;;
51957;SDS011;41120;51.820;20.804;2023-05-07T05:36:22;5.35;;;3.33;;
51957;SDS011;41120;51.820;20.804;2023-05-07T05:38:48;6.05;;;3.63;;
51957;SDS011;41120;51.820;20.804;2023-05-07T05:44:10;5.35;;;3.47;;
51957;SDS011;41120;51.820;20.804;2023-05-07T05:46:44;2.92;;;2.40;;
51957;SDS011;41120;51.820;20.804;2023-05-07T05:49:27;6.57;;;2.90;;
51957;SDS011;41120;51.820;20.804;2023-05-07T05:51:54;4.10;;;2.60;;
51957;SDS011;41120;51.820;20.804;2023-05-07T05:54:27;3.05;;;2.75;;
51957;SDS011;41120;51.820;20.804;2023-05-07T05:56:55;5.30;;;2.88;;
51957;SDS011;41120;51.820;20.804;2023-05-07T05:59:27;3.20;;;2.40;;
51957;SDS011;41120;51.820;20.804;2023-05-07T06:02:01;2.78;;;2.53;;
51957;SDS011;41120;51.820;20.804;2023-05-07T06:04:27;3.47;;;2.55;;
51957;SDS011;41120;51.820;20.804;2023-05-07T06:06:54;3.10;;;2.50;;
51957;SDS011;41120;51.820;20.804;2023-05-07T06:15:06;6.32;;;2.60;;
51957;SDS011;41120;51.820;20.804;2023-05-07T06:17:33;2.95;;;2.60;;
51957;SDS011;41120;51.820;20.804;2023-05-07T06:20:14;3.35;;;2.25;;
51957;SDS011;41120;51.820;20.804;2023-05-07T06:22:43;2.70;;;2.47;;
51957;SDS011;41120;51.820;20.804;2023-05-07T06:27:45;3.00;;;2.70;;
51957;SDS011;41120;51.820;20.804;2023-05-07T06:30:11;2.70;;;2.40;;
51957;SDS011;41120;51.820;20.804;2023-05-07T06:37:52;2.75;;;2.50;;
51957;SDS011;41120;51.820;20.804;2023-05-07T06:40:18;4.07;;;2.50;;
51957;SDS011;41120;51.820;20.804;2023-05-07T06:42:45;2.70;;;2.10;;
51957;SDS011;41120;51.820;20.804;2023-05-07T06:45:29;3.67;;;2.55;;
51957;SDS011;41120;51.820;20.804;2023-05-07T06:47:56;4.20;;;2.70;;
51957;SDS011;41120;51.820;20.804;2023-05-07T06:50:25;7.63;;;4.70;;
51957;SDS011;41120;51.820;20.804;2023-05-07T06:52:53;7.90;;;4.90;;
51957;SDS011;41120;51.820;20.804;2023-05-07T06:55:24;5.57;;;4.35;;
51957;SDS011;41120;51.820;20.804;2023-05-07T06:58:04;4.03;;;2.65;;
51957;SDS011;41120;51.820;20.804;2023-05-07T07:00:32;3.15;;;2.20;;
51957;SDS011;41120;51.820;20.804;2023-05-07T07:02:59;3.20;;;2.38;;
51957;SDS011;41120;51.820;20.804;2023-05-07T07:05:27;3.15;;;1.67;;
51957;SDS011;41120;51.820;20.804;2023-05-07T07:07:59;6.07;;;3.20;;
51957;SDS011;41120;51.820;20.804;2023-05-07T07:12:56;2.90;;;2.13;;
51957;SDS011;41120;51.820;20.804;2023-05-07T07:15:27;3.13;;;2.10;;
51957;SDS011;41120;51.820;20.804;2023-05-07T07:18:05;5.25;;;2.75;;
51957;SDS011;41120;51.820;20.804;2023-05-07T07:20:32;4.05;;;2.33;;
51957;SDS011;41120;51.820;20.804;2023-05-07T07:25:35;3.00;;;2.30;;
51957;SDS011;41120;51.820;20.804;2023-05-07T07:30:31;3.58;;;2.22;;
51957;SDS011;41120;51.820;20.804;2023-05-07T07:33:02;4.05;;;2.17;;
51957;SDS011;41120;51.820;20.804;2023-05-07T07:35:29;7.53;;;4.53;;
51957;SDS011;41120;51.820;20.804;2023-05-07T07:37:57;6.28;;;3.55;;
51957;SDS011;41120;51.820;20.804;2023-05-07T07:40:28;3.63;;;2.58;;
51957;SDS011;41120;51.820;20.804;2023-05-07T07:43:05;5.03;;;2.50;;
51957;SDS011;41120;51.820;20.804;2023-05-07T07:45:33;3.65;;;2.50;;
51957;SDS011;41120;51.820;20.804;2023-05-07T07:48:01;4.45;;;2.92;;
51957;SDS011;41120;51.820;20.804;2023-05-07T07:50:27;3.67;;;3.05;;
51957;SDS011;41120;51.820;20.804;2023-05-07T07:52:54;4.57;;;2.67;;
51957;SDS011;41120;51.820;20.804;2023-05-07T07:55:30;3.57;;;2.10;;
51957;SDS011;41120;51.820;20.804;2023-05-07T07:57:57;3.85;;;2.45;;
51957;SDS011;41120;51.820;20.804;2023-05-07T08:00:30;3.17;;;2.30;;
51957;SDS011;41120;51.820;20.804;2023-05-07T08:02:56;1.95;;;1.52;;
51957;SDS011;41120;51.820;20.804;2023-05-07T08:05:28;1.83;;;1.57;;
51957;SDS011;41120;51.820;20.804;2023-05-07T08:07:55;2.33;;;1.98;;
51957;SDS011;41120;51.820;20.804;2023-05-07T08:13:00;3.13;;;1.52;;
51957;SDS011;41120;51.820;20.804;2023-05-07T08:17:58;2.83;;;1.85;;
51957;SDS011;41120;51.820;20.804;2023-05-07T08:20:26;3.35;;;2.72;;
51957;SDS011;41120;51.820;20.804;2023-05-07T08:22:53;3.28;;;2.55;;
51957;SDS011;41120;51.820;20.804;2023-05-07T08:25:34;2.97;;;2.20;;
51957;SDS011;41120;51.820;20.804;2023-05-07T08:28:02;2.70;;;1.95;;
51957;SDS011;41120;51.820;20.804;2023-05-07T08:30:38;3.22;;;2.40;;
51957;SDS011;41120;51.820;20.804;2023-05-07T08:33:13;2.85;;;2.10;;
51957;SDS011;41120;51.820;20.804;2023-05-07T08:38:15;2.28;;;1.95;;
51957;SDS011;41120;51.820;20.804;2023-05-07T08:43:17;2.95;;;1.92;;
51957;SDS011;41120;51.820;20.804;2023-05-07T08:45:45;2.50;;;2.30;;
51957;SDS011;41120;51.820;20.804;2023-05-07T08:48:18;2.40;;;2.17;;
51957;SDS011;41120;51.820;20.804;2023-05-07T08:50:48;3.70;;;2.38;;
51957;SDS011;41120;51.820;20.804;2023-05-07T08:55:47;3.67;;;2.70;;
51957;SDS011;41120;51.820;20.804;2023-05-07T08:58:18;2.03;;;1.83;;
51957;SDS011;41120;51.820;20.804;2023-05-07T09:00:52;3.15;;;2.03;;
51957;SDS011;41120;51.820;20.804;2023-05-07T09:03:20;3.67;;;2.15;;
51957;SDS011;41120;51.820;20.804;2023-05-07T09:05:46;4.23;;;2.20;;
51957;SDS011;41120;51.820;20.804;2023-05-07T09:08:26;3.83;;;2.50;;
51957;SDS011;41120;51.820;20.804;2023-05-07T09:11:01;3.35;;;2.50;;
51957;SDS011;41120;51.820;20.804;2023-05-07T09:13:30;2.88;;;2.38;;
51957;SDS011;41120;51.820;20.804;2023-05-07T09:16:12;3.05;;;2.20;;
51957;SDS011;41120;51.820;20.804;2023-05-07T09:18:43;4.22;;;2.22;;
51957;SDS011;41120;51.820;20.804;2023-05-07T09:21:11;5.40;;;2.05;;
51957;SDS011;41120;51.820;20.804;2023-05-07T09:23:41;4.53;;;2.28;;
51957;SDS011;41120;51.820;20.804;2023-05-07T09:29:09;3.50;;;2.45;;
51957;SDS011;41120;51.820;20.804;2023-05-07T09:31:40;5.15;;;2.60;;
51957;SDS011;41120;51.820;20.804;2023-05-07T09:34:18;4.25;;;2.45;;
51957;SDS011;41120;51.820;20.804;2023-05-07T09:36:46;4.22;;;2.55;;
51957;SDS011;41120;51.820;20.804;2023-05-07T09:39:23;4.03;;;2.20;;
51957;SDS011;41120;51.820;20.804;2023-05-07T09:41:49;4.43;;;2.20;;
51957;SDS011;41120;51.820;20.804;2023-05-07T09:44:18;3.63;;;2.60;;
51957;SDS011;41120;51.820;20.804;2023-05-07T09:46:44;4.43;;;2.80;;
51957;SDS011;41120;51.820;20.804;2023-05-07T09:49:23;3.53;;;2.53;;
51957;SDS011;41120;51.820;20.804;2023-05-07T09:52:05;5.13;;;2.47;;
51957;SDS011;41120;51.820;20.804;2023-05-07T09:57:18;4.35;;;2.78;;
51957;SDS011;41120;51.820;20.804;2023-05-07T09:59:45;4.47;;;2.63;;
51957;SDS011;41120;51.820;20.804;2023-05-07T10:02:18;3.20;;;2.42;;
51957;SDS011;41120;51.820;20.804;2023-05-07T10:07:15;2.60;;;2.10;;
51957;SDS011;41120;51.820;20.804;2023-05-07T10:09:46;2.45;;;1.95;;
51957;SDS011;41120;51.820;20.804;2023-05-07T10:12:14;4.90;;;2.70;;
51957;SDS011;41120;51.820;20.804;2023-05-07T10:14:49;3.45;;;2.47;;
51957;SDS011;41120;51.820;20.804;2023-05-07T10:17:18;5.75;;;2.53;;
51957;SDS011;41120;51.820;20.804;2023-05-07T10:32:49;2.70;;;1.80;;
51957;SDS011;41120;51.820;20.804;2023-05-07T10:35:26;3.08;;;2.00;;
51957;SDS011;41120;51.820;20.804;2023-05-07T10:37:55;2.15;;;1.73;;
51957;SDS011;41120;51.820;20.804;2023-05-07T10:40:31;3.30;;;1.80;;
51957;SDS011;41120;51.820;20.804;2023-05-07T10:42:59;1.65;;;1.50;;
51957;SDS011;41120;51.820;20.804;2023-05-07T10:45:33;4.55;;;2.20;;
51957;SDS011;41120;51.820;20.804;2023-05-07T10:56:40;3.17;;;2.63;;
51957;SDS011;41120;51.820;20.804;2023-05-07T11:02:04;3.20;;;1.90;;
51957;SDS011;41120;51.820;20.804;2023-05-07T11:07:57;2.85;;;2.08;;
51957;SDS011;41120;51.820;20.804;2023-05-07T11:10:47;3.88;;;2.13;;
51957;SDS011;41120;51.820;20.804;2023-05-07T11:18:51;3.72;;;2.20;;
51957;SDS011;41120;51.820;20.804;2023-05-07T11:28:08;3.05;;;2.30;;
51957;SDS011;41120;51.820;20.804;2023-05-07T11:30:41;2.40;;;2.13;;
51957;SDS011;41120;51.820;20.804;2023-05-07T11:33:16;2.47;;;2.03;;
51957;SDS011;41120;51.820;20.804;2023-05-07T11:38:12;2.93;;;2.30;;
51957;SDS011;41120;51.820;20.804;2023-05-07T11:40:49;2.43;;;1.97;;
51957;SDS011;41120;51.820;20.804;2023-05-07T11:43:17;3.67;;;2.27;;
51957;SDS011;41120;51.820;20.804;2023-05-07T11:45:46;4.13;;;2.27;;
51957;SDS011;41120;51.820;20.804;2023-05-07T11:48:12;3.20;;;2.00;;
51957;SDS011;41120;51.820;20.804;2023-05-07T11:53:42;2.83;;;2.13;;
51957;SDS011;41120;51.820;20.804;2023-05-07T12:01:34;4.27;;;2.60;;
51957;SDS011;41120;51.820;20.804;2023-05-07T12:04:00;5.40;;;3.00;;
51957;SDS011;41120;51.820;20.804;2023-05-07T12:06:30;5.23;;;2.90;;
51957;SDS011;41120;51.820;20.804;2023-05-07T12:08:59;4.63;;;2.83;;
51957;SDS011;41120;51.820;20.804;2023-05-07T12:11:26;10.33;;;5.23;;
51957;SDS011;41120;51.820;20.804;2023-05-07T12:13:53;4.70;;;2.70;;
51957;SDS011;41120;51.820;20.804;2023-05-07T12:18:50;2.40;;;1.90;;
51957;SDS011;41120;51.820;20.804;2023-05-07T12:21:20;4.67;;;2.30;;
51957;SDS011;41120;51.820;20.804;2023-05-07T12:23:47;3.50;;;2.00;;
51957;SDS011;41120;51.820;20.804;2023-05-07T12:26:25;4.33;;;2.40;;
51957;SDS011;41120;51.820;20.804;2023-05-07T12:28:51;3.40;;;2.13;;
51957;SDS011;41120;51.820;20.804;2023-05-07T12:31:33;4.90;;;2.83;;
51957;SDS011;41120;51.820;20.804;2023-05-07T12:34:00;4.27;;;2.47;;
51957;SDS011;41120;51.820;20.804;2023-05-07T12:36:45;3.10;;;2.33;;
51957;SDS011;41120;51.820;20.804;2023-05-07T12:39:13;4.53;;;2.43;;
51957;SDS011;41120;51.820;20.804;2023-05-07T12:41:58;2.43;;;2.07;;
51957;SDS011;41120;51.820;20.804;2023-05-07T12:47:03;5.50;;;2.77;;
51957;SDS011;41120;51.820;20.804;2023-05-07T12:49:47;4.90;;;2.00;;
51957;SDS011;41120;51.820;20.804;2023-05-07T12:52:24;3.70;;;2.17;;
51957;SDS011;41120;51.820;20.804;2023-05-07T12:57:49;4.33;;;2.03;;
51957;SDS011;41120;51.820;20.804;2023-05-07T13:03:11;3.40;;;1.90;;
51957;SDS011;41120;51.820;20.804;2023-05-07T13:05:42;3.43;;;2.20;;
51957;SDS011;41120;51.820;20.804;2023-05-07T13:11:04;3.97;;;1.75;;
51957;SDS011;41120;51.820;20.804;2023-05-07T13:16:20;2.20;;;1.60;;
51957;SDS011;41120;51.820;20.804;2023-05-07T13:18:46;4.10;;;1.70;;
51957;SDS011;41120;51.820;20.804;2023-05-07T13:26:57;4.20;;;1.90;;
51957;SDS011;41120;51.820;20.804;2023-05-07T13:29:30;2.80;;;2.47;;
51957;SDS011;41120;51.820;20.804;2023-05-07T13:32:01;3.73;;;2.07;;
51957;SDS011;41120;51.820;20.804;2023-05-07T13:34:42;3.87;;;2.50;;
51957;SDS011;41120;51.820;20.804;2023-05-07T13:37:09;4.20;;;2.20;;
51957;SDS011;41120;51.820;20.804;2023-05-07T13:39:48;3.03;;;2.30;;
51957;SDS011;41120;51.820;20.804;2023-05-07T13:42:28;2.93;;;1.80;;
51957;SDS011;41120;51.820;20.804;2023-05-07T13:45:04;4.27;;;2.07;;
51957;SDS011;41120;51.820;20.804;2023-05-07T13:47:44;3.10;;;2.03;;
51957;SDS011;41120;51.820;20.804;2023-05-07T13:52:58;1.80;;;1.70;;
51957;SDS011;41120;51.820;20.804;2023-05-07T13:55:28;3.00;;;1.90;;
51957;SDS011;41120;51.820;20.804;2023-05-07T13:57:56;3.77;;;1.93;;
51957;SDS011;41120;51.820;20.804;2023-05-07T14:00:26;5.67;;;2.30;;
51957;SDS011;41120;51.820;20.804;2023-05-07T14:03:01;3.23;;;1.90;;
51957;SDS011;41120;51.820;20.804;2023-05-07T14:05:29;5.30;;;2.33;;
51957;SDS011;41120;51.820;20.804;2023-05-07T14:07:58;3.10;;;2.07;;
51957;SDS011;41120;51.820;20.804;2023-05-07T14:10:24;3.03;;;2.03;;
51957;SDS011;41120;51.820;20.804;2023-05-07T14:12:50;3.80;;;2.30;;
51957;SDS011;41120;51.820;20.804;2023-05-07T14:15:18;2.33;;;1.97;;
51957;SDS011;41120;51.820;20.804;2023-05-07T14:17:59;2.90;;;2.30;;
51957;SDS011;41120;51.820;20.804;2023-05-07T14:20:32;3.33;;;2.07;;
51957;SDS011;41120;51.820;20.804;2023-05-07T14:22:58;3.22;;;2.30;;
51957;SDS011;41120;51.820;20.804;2023-05-07T14:25:25;3.23;;;2.20;;
51957;SDS011;41120;51.820;20.804;2023-05-07T14:27:50;3.33;;;1.80;;
51957;SDS011;41120;51.820;20.804;2023-05-07T14:30:20;2.60;;;1.90;;
51957;SDS011;41120;51.820;20.804;2023-05-07T14:32:48;3.47;;;1.93;;
51957;SDS011;41120;51.820;20.804;2023-05-07T14:35:19;2.00;;;1.80;;
51957;SDS011;41120;51.820;20.804;2023-05-07T14:37:50;2.73;;;1.90;;
51957;SDS011;41120;51.820;20.804;2023-05-07T14:40:16;2.90;;;2.13;;
51957;SDS011;41120;51.820;20.804;2023-05-07T14:45:17;2.50;;;2.20;;
51957;SDS011;41120;51.820;20.804;2023-05-07T14:47:45;4.57;;;1.93;;
51957;SDS011;41120;51.820;20.804;2023-05-07T14:52:41;2.50;;;1.80;;
51957;SDS011;41120;51.820;20.804;2023-05-07T14:55:14;3.30;;;2.17;;
51957;SDS011;41120;51.820;20.804;2023-05-07T14:57:49;5.22;;;1.88;;
51957;SDS011;41120;51.820;20.804;2023-05-07T15:00:18;7.33;;;2.10;;
51957;SDS011;41120;51.820;20.804;2023-05-07T15:02:46;2.47;;;1.80;;
51957;SDS011;41120;51.820;20.804;2023-05-07T15:05:14;2.33;;;1.90;;
51957;SDS011;41120;51.820;20.804;2023-05-07T15:10:25;6.77;;;1.77;;
51957;SDS011;41120;51.820;20.804;2023-05-07T15:13:05;2.53;;;1.88;;
51957;SDS011;41120;51.820;20.804;2023-05-07T15:15:34;2.30;;;1.80;;
51957;SDS011;41120;51.820;20.804;2023-05-07T15:18:05;4.27;;;1.90;;
51957;SDS011;41120;51.820;20.804;2023-05-07T15:20:35;2.57;;;1.97;;
51957;SDS011;41120;51.820;20.804;2023-05-07T15:23:07;2.67;;;1.97;;
51957;SDS011;41120;51.820;20.804;2023-05-07T15:25:43;2.60;;;2.00;;
51957;SDS011;41120;51.820;20.804;2023-05-07T15:28:08;3.97;;;2.00;;
51957;SDS011;41120;51.820;20.804;2023-05-07T15:30:36;4.10;;;2.27;;
51957;SDS011;41120;51.820;20.804;2023-05-07T15:36:14;3.93;;;1.90;;
51957;SDS011;41120;51.820;20.804;2023-05-07T15:38:48;2.40;;;1.90;;
51957;SDS011;41120;51.820;20.804;2023-05-07T15:44:03;2.20;;;1.80;;
51957;SDS011;41120;51.820;20.804;2023-05-07T15:49:26;5.53;;;2.20;;
51957;SDS011;41120;51.820;20.804;2023-05-07T15:54:46;2.87;;;1.93;;
51957;SDS011;41120;51.820;20.804;2023-05-07T15:59:58;2.20;;;1.90;;
51957;SDS011;41120;51.820;20.804;2023-05-07T16:08:34;2.30;;;1.80;;
51957;SDS011;41120;51.820;20.804;2023-05-07T16:11:10;3.47;;;1.90;;
51957;SDS011;41120;51.820;20.804;2023-05-07T16:13:37;4.30;;;2.20;;
51957;SDS011;41120;51.820;20.804;2023-05-07T16:16:10;4.37;;;2.30;;
51957;SDS011;41120;51.820;20.804;2023-05-07T16:18:37;3.47;;;2.37;;
51957;SDS011;41120;51.820;20.804;2023-05-07T16:21:04;3.17;;;1.83;;
51957;SDS011;41120;51.820;20.804;2023-05-07T16:23:36;4.40;;;2.00;;
51957;SDS011;41120;51.820;20.804;2023-05-07T16:26:02;4.23;;;1.87;;
51957;SDS011;41120;51.820;20.804;2023-05-07T16:28:30;3.17;;;1.87;;
51957;SDS011;41120;51.820;20.804;2023-05-07T16:30:56;2.37;;;1.90;;
51957;SDS011;41120;51.820;20.804;2023-05-07T16:33:29;2.70;;;2.00;;
51957;SDS011;41120;51.820;20.804;2023-05-07T16:35:55;3.13;;;1.73;;
51957;SDS011;41120;51.820;20.804;2023-05-07T16:38:21;2.20;;;1.70;;
51957;SDS011;41120;51.820;20.804;2023-05-07T16:40:54;4.57;;;2.10;;
51957;SDS011;41120;51.820;20.804;2023-05-07T16:43:22;3.03;;;2.70;;
51957;SDS011;41120;51.820;20.804;2023-05-07T16:45:48;2.67;;;2.17;;
51957;SDS011;41120;51.820;20.804;2023-05-07T16:48:15;3.07;;;1.90;;
51957;SDS011;41120;51.820;20.804;2023-05-07T16:50:42;3.43;;;2.33;;
51957;SDS011;41120;51.820;20.804;2023-05-07T16:53:09;3.10;;;2.03;;
51957;SDS011;41120;51.820;20.804;2023-05-07T16:55:36;7.40;;;2.57;;
51957;SDS011;41120;51.820;20.804;2023-05-07T16:58:08;3.50;;;2.23;;
51957;SDS011;41120;51.820;20.804;2023-05-07T17:03:28;2.70;;;2.07;;
51957;SDS011;41120;51.820;20.804;2023-05-07T17:06:01;2.63;;;2.20;;
51957;SDS011;41120;51.820;20.804;2023-05-07T17:08:37;3.87;;;2.33;;
51957;SDS011;41120;51.820;20.804;2023-05-07T17:11:02;3.37;;;2.47;;
51957;SDS011;41120;51.820;20.804;2023-05-07T17:13:29;2.87;;;2.17;;
51957;SDS011;41120;51.820;20.804;2023-05-07T17:15:55;3.27;;;2.10;;
51957;SDS011;41120;51.820;20.804;2023-05-07T17:21:19;4.55;;;2.30;;
51957;SDS011;41120;51.820;20.804;2023-05-07T17:24:05;4.70;;;2.20;;
51957;SDS011;41120;51.820;20.804;2023-05-07T17:26:36;2.63;;;2.10;;
51957;SDS011;41120;51.820;20.804;2023-05-07T17:29:04;4.32;;;2.53;;
51957;SDS011;41120;51.820;20.804;2023-05-07T17:31:38;3.00;;;2.20;;
51957;SDS011;41120;51.820;20.804;2023-05-07T17:34:13;4.70;;;2.33;;
51957;SDS011;41120;51.820;20.804;2023-05-07T17:36:47;4.53;;;2.47;;
51957;SDS011;41120;51.820;20.804;2023-05-07T17:39:15;4.18;;;2.83;;
51957;SDS011;41120;51.820;20.804;2023-05-07T17:41:41;4.75;;;2.42;;
51957;SDS011;41120;51.820;20.804;2023-05-07T17:44:08;3.10;;;2.50;;
51957;SDS011;41120;51.820;20.804;2023-05-07T17:46:37;6.13;;;2.53;;
51957;SDS011;41120;51.820;20.804;2023-05-07T17:49:03;4.43;;;3.03;;
51957;SDS011;41120;51.820;20.804;2023-05-07T17:54:50;4.60;;;3.08;;
51957;SDS011;41120;51.820;20.804;2023-05-07T17:57:20;4.80;;;2.70;;
51957;SDS011;41120;51.820;20.804;2023-05-07T17:59:57;5.03;;;2.80;;
51957;SDS011;41120;51.820;20.804;2023-05-07T18:05:08;5.50;;;3.17;;
51957;SDS011;41120;51.820;20.804;2023-05-07T18:07:42;5.57;;;3.28;;
51957;SDS011;41120;51.820;20.804;2023-05-07T18:10:21;4.75;;;3.50;;
51957;SDS011;41120;51.820;20.804;2023-05-07T18:12:49;5.90;;;3.40;;
51957;SDS011;41120;51.820;20.804;2023-05-07T18:15:24;6.15;;;3.75;;
51957;SDS011;41120;51.820;20.804;2023-05-07T18:17:53;7.55;;;4.07;;
51957;SDS011;41120;51.820;20.804;2023-05-07T18:20:22;7.07;;;3.53;;
51957;SDS011;41120;51.820;20.804;2023-05-07T18:22:49;9.82;;;3.75;;
51957;SDS011;41120;51.820;20.804;2023-05-07T18:25:15;4.82;;;3.30;;
51957;SDS011;41120;51.820;20.804;2023-05-07T18:27:44;5.00;;;3.22;;
51957;SDS011;41120;51.820;20.804;2023-05-07T18:30:11;6.05;;;3.50;;
51957;SDS011;41120;51.820;20.804;2023-05-07T18:32:39;6.28;;;3.53;;
51957;SDS011;41120;51.820;20.804;2023-05-07T18:42:52;5.80;;;3.85;;
51957;SDS011;41120;51.820;20.804;2023-05-07T18:45:22;7.28;;;4.10;;
51957;SDS011;41120;51.820;20.804;2023-05-07T18:47:48;6.50;;;3.60;;
51957;SDS011;41120;51.820;20.804;2023-05-07T18:50:30;6.23;;;3.53;;
51957;SDS011;41120;51.820;20.804;2023-05-07T18:55:29;5.32;;;3.40;;
51957;SDS011;41120;51.820;20.804;2023-05-07T19:00:27;6.28;;;4.10;;
51957;SDS011;41120;51.820;20.804;2023-05-07T19:02:56;5.90;;;3.50;;
51957;SDS011;41120;51.820;20.804;2023-05-07T19:05:23;7.20;;;4.07;;
51957;SDS011;41120;51.820;20.804;2023-05-07T19:10:26;7.75;;;4.38;;
51957;SDS011;41120;51.820;20.804;2023-05-07T19:13:06;5.85;;;4.20;;
51957;SDS011;41120;51.820;20.804;2023-05-07T19:15:34;9.02;;;5.13;;
51957;SDS011;41120;51.820;20.804;2023-05-07T19:18:02;16.95;;;9.20;;
51957;SDS011;41120;51.820;20.804;2023-05-07T19:20:34;14.90;;;9.10;;
51957;SDS011;41120;51.820;20.804;2023-05-07T19:25:38;26.30;;;12.65;;
51957;SDS011;41120;51.820;20.804;2023-05-07T19:28:07;47.00;;;18.67;;
51957;SDS011;41120;51.820;20.804;2023-05-07T19:30:39;36.00;;;16.90;;
51957;SDS011;41120;51.820;20.804;2023-05-07T19:33:08;43.05;;;19.25;;
51957;SDS011;41120;51.820;20.804;2023-05-07T19:38:07;49.15;;;21.30;;
51957;SDS011;41120;51.820;20.804;2023-05-07T19:43:20;35.72;;;18.88;;
51957;SDS011;41120;51.820;20.804;2023-05-07T19:45:47;25.90;;;13.82;;
51957;SDS011;41120;51.820;20.804;2023-05-07T19:48:17;24.52;;;12.45;;
51957;SDS011;41120;51.820;20.804;2023-05-07T19:50:46;15.93;;;7.63;;
51957;SDS011;41120;51.820;20.804;2023-05-07T19:53:13;14.38;;;8.40;;
51957;SDS011;41120;51.820;20.804;2023-05-07T19:55:41;10.38;;;6.50;;
51957;SDS011;41120;51.820;20.804;2023-05-07T19:58:09;11.55;;;7.07;;
51957;SDS011;41120;51.820;20.804;2023-05-07T20:00:41;11.10;;;6.60;;
51957;SDS011;41120;51.820;20.804;2023-05-07T20:03:08;16.67;;;8.25;;